createdAt,value
2022-09-14T00:01:34.261Z,16.79
2022-09-14T00:04:11.180Z,16.97
2022-09-14T00:06:44.374Z,17.22
2022-09-14T00:09:21.857Z,17.15
2022-09-14T00:11:55.712Z,17.12
2022-09-14T00:14:28.089Z,17.12
2022-09-14T00:17:02.439Z,17.32
2022-09-14T00:19:34.961Z,17.35
2022-09-14T00:22:07.166Z,16.99
2022-09-14T00:24:39.642Z,16.84
2022-09-14T00:27:40.353Z,16.81
2022-09-14T00:30:15.342Z,16.74
2022-09-14T00:32:51.237Z,16.93
2022-09-14T00:35:22.447Z,17.06
2022-09-14T00:37:53.895Z,17.29
2022-09-14T00:40:24.504Z,17.27
2022-09-14T00:42:54.622Z,17.04
2022-09-14T00:45:25.437Z,16.95
2022-09-14T00:47:58.536Z,16.65
2022-09-14T00:50:29.143Z,16.62
2022-09-14T00:53:00.624Z,16.47
2022-09-14T00:55:30.924Z,16.62
2022-09-14T00:58:02.217Z,16.62
2022-09-14T01:00:33.922Z,16.69
2022-09-14T01:03:07.110Z,16.90
2022-09-14T01:05:49.425Z,17.01
2022-09-14T01:08:35.192Z,17.19
2022-09-14T01:11:18.398Z,17.38
2022-09-14T01:13:59.213Z,17.30
2022-09-14T01:16:37.400Z,17.16
2022-09-14T01:23:11.358Z,16.81
2022-09-14T01:26:05.490Z,16.79
2022-09-14T01:28:44.309Z,16.90
2022-09-14T01:31:19.478Z,17.08
2022-09-14T01:33:56.245Z,16.92
2022-09-14T01:36:30.231Z,16.82
2022-09-14T01:39:02.152Z,16.56
2022-09-14T01:41:34.275Z,16.43
2022-09-14T01:44:13.755Z,16.21
2022-09-14T01:46:48.185Z,16.15
2022-09-14T01:49:22.417Z,16.03
2022-09-14T01:51:57.700Z,16.07
2022-09-14T01:54:31.642Z,16.32
2022-09-14T01:57:07.260Z,16.16
2022-09-14T01:59:44.826Z,16.35
2022-09-14T02:10:19.371Z,16.16
2022-09-14T02:12:49.968Z,16.08
2022-09-14T02:15:23.187Z,16.24
2022-09-14T02:17:53.396Z,16.45
2022-09-14T02:20:28.992Z,16.38
2022-09-14T02:22:59.908Z,16.46
2022-09-14T02:25:30.437Z,16.11
2022-09-14T02:28:00.897Z,15.98
2022-09-14T02:30:42.420Z,15.60
2022-09-14T02:33:18.656Z,15.22
2022-09-14T02:35:52.695Z,15.20
2022-09-14T02:38:29.864Z,15.30
2022-09-14T02:41:05.777Z,15.32
2022-09-14T02:43:46.639Z,15.07
2022-09-14T02:46:24.479Z,15.20
2022-09-14T02:49:00.986Z,15.31
2022-09-14T02:51:36.323Z,15.37
2022-09-14T02:54:16.103Z,15.20
2022-09-14T02:56:46.708Z,15.06
2022-09-14T02:59:18.663Z,15.13
2022-09-14T03:01:51.327Z,15.06
2022-09-14T03:04:22.420Z,15.21
2022-09-14T03:06:52.497Z,15.22
2022-09-14T03:09:22.768Z,14.95
2022-09-14T03:11:52.663Z,14.97
2022-09-14T03:14:22.616Z,14.80
2022-09-14T03:16:55.542Z,14.65
2022-09-14T03:19:25.451Z,14.60
2022-09-14T03:21:55.782Z,14.40
2022-09-14T03:24:25.866Z,14.37
2022-09-14T03:26:56.152Z,14.27
2022-09-14T03:29:26.318Z,14.21
2022-09-14T03:31:58.776Z,14.40
2022-09-14T03:34:29.127Z,14.37
2022-09-14T03:36:59.044Z,14.44
2022-09-14T03:39:28.847Z,14.50
2022-09-14T03:41:58.851Z,14.52
2022-09-14T03:44:28.658Z,14.62
2022-09-14T03:47:01.342Z,14.68
2022-09-14T03:49:31.394Z,14.55
2022-09-14T03:52:01.110Z,14.53
2022-09-14T03:54:30.897Z,14.43
2022-09-14T03:57:01.194Z,14.24
2022-09-14T03:59:31.109Z,14.32
2022-09-14T04:02:05.008Z,14.32
2022-09-14T04:04:35.096Z,14.49
2022-09-14T04:07:04.798Z,14.37
2022-09-14T04:09:34.543Z,14.40
2022-09-14T04:12:04.908Z,14.45
2022-09-14T04:14:34.643Z,14.31
2022-09-14T04:17:07.410Z,14.25
2022-09-14T04:19:38.615Z,14.00
2022-09-14T04:22:08.470Z,13.95
2022-09-14T04:24:38.915Z,13.92
2022-09-14T04:27:08.714Z,13.99
2022-09-14T04:29:38.446Z,14.10
2022-09-14T04:32:11.341Z,14.19
2022-09-14T04:34:41.029Z,14.51
2022-09-14T04:37:11.422Z,14.66
2022-09-14T04:39:42.346Z,15.01
2022-09-14T04:42:12.432Z,14.62
2022-09-14T04:44:42.111Z,15.16
2022-09-14T04:47:14.501Z,15.25
2022-09-14T04:49:44.727Z,15.18
2022-09-14T04:52:14.488Z,15.31
2022-09-14T04:54:44.195Z,15.25
2022-09-14T04:57:14.241Z,15.15
2022-09-14T04:59:44.390Z,14.94
2022-09-14T05:02:16.823Z,14.88
2022-09-14T05:04:46.984Z,14.85
2022-09-14T05:07:17.018Z,15.00
2022-09-14T05:09:46.818Z,15.18
2022-09-14T05:12:16.793Z,15.28
2022-09-14T05:14:46.531Z,15.43
2022-09-14T05:17:18.839Z,15.62
2022-09-14T05:22:52.895Z,15.69
2022-09-14T05:25:22.936Z,15.84
2022-09-14T05:27:53.193Z,15.64
2022-09-14T05:30:22.946Z,15.39
2022-09-14T05:32:58.060Z,15.06
2022-09-14T05:35:28.043Z,14.81
2022-09-14T05:37:58.071Z,14.52
2022-09-14T05:40:28.089Z,14.34
2022-09-14T05:42:57.836Z,14.31
2022-09-14T05:45:27.868Z,14.36
2022-09-14T05:55:22.524Z,14.97
2022-09-14T05:57:52.613Z,15.16
2022-09-14T06:00:22.606Z,15.26
2022-09-14T06:02:56.256Z,15.48
2022-09-14T06:05:26.803Z,15.56
2022-09-14T06:07:57.119Z,15.51
2022-09-14T06:10:29.525Z,15.66
2022-09-14T06:12:59.612Z,15.58
2022-09-14T06:15:32.604Z,15.74
2022-09-14T06:18:03.197Z,15.82
2022-09-14T06:20:35.084Z,15.78
2022-09-14T06:23:05.366Z,15.64
2022-09-14T06:25:37.608Z,15.63
2022-09-14T06:28:11.296Z,15.75
2022-09-14T06:30:45.489Z,15.92
2022-09-14T06:33:15.719Z,16.02
2022-09-14T06:35:46.428Z,16.01
2022-09-14T06:38:28.671Z,16.13
2022-09-14T06:41:19.971Z,16.21
2022-09-14T06:44:35.714Z,16.26
2022-09-14T06:47:33.549Z,16.35
2022-09-14T06:50:21.213Z,16.23
2022-09-14T06:53:06.636Z,16.29
2022-09-14T06:55:57.408Z,16.26
2022-09-14T06:58:42.495Z,16.10
2022-09-14T07:01:22.576Z,16.34
2022-09-14T07:03:55.909Z,16.49
2022-09-14T07:06:32.479Z,16.43
2022-09-14T07:09:09.239Z,16.57
2022-09-14T07:15:16.729Z,16.60
2022-09-14T07:17:51.930Z,16.71
2022-09-14T07:20:22.430Z,16.84
2022-09-14T07:22:53.331Z,16.84
2022-09-14T07:25:23.547Z,16.71
2022-09-14T07:28:02.057Z,16.75
2022-09-14T07:30:38.080Z,16.90
2022-09-14T07:33:08.601Z,17.11
2022-09-14T07:35:39.772Z,17.22
2022-09-14T07:38:14.144Z,17.27
2022-09-14T07:40:44.595Z,17.22
2022-09-14T07:43:19.844Z,17.27
2022-09-14T07:45:55.091Z,17.23
2022-09-14T07:48:26.030Z,17.18
2022-09-14T07:51:02.892Z,17.37
2022-09-14T07:53:33.652Z,17.36
2022-09-14T07:56:04.222Z,17.55
2022-09-14T07:58:34.860Z,17.55
2022-09-14T08:01:11.980Z,17.50
2022-09-14T08:03:43.573Z,17.73
2022-09-14T08:06:15.225Z,17.72
2022-09-14T08:08:48.012Z,17.96
2022-09-14T08:11:19.739Z,18.07
2022-09-14T08:13:53.142Z,18.11
2022-09-14T08:16:26.850Z,18.09
2022-09-14T08:18:58.789Z,18.02
2022-09-14T08:21:30.284Z,18.00
2022-09-14T08:24:05.875Z,18.16
2022-09-14T08:26:40.829Z,18.41
2022-09-14T08:29:11.483Z,18.51
2022-09-14T08:31:45.608Z,18.75
2022-09-14T08:34:24.980Z,18.23
2022-09-14T08:37:37.022Z,18.66
2022-09-14T08:44:30.598Z,17.72
2022-09-14T08:47:06.242Z,18.09
2022-09-14T08:49:47.888Z,18.54
2022-09-14T08:52:27.259Z,18.60
2022-09-14T08:54:58.913Z,18.64
2022-09-14T08:57:38.042Z,18.79
2022-09-14T09:00:13.208Z,19.08
2022-09-14T09:03:11.286Z,18.62
2022-09-14T09:05:47.360Z,18.55
2022-09-14T09:08:25.863Z,18.60
2022-09-14T09:10:57.648Z,19.01
2022-09-14T09:13:35.574Z,18.80
2022-09-14T09:16:10.258Z,18.59
2022-09-14T09:18:48.138Z,18.60
2022-09-14T09:28:49.566Z,19.44
2022-09-14T09:31:22.155Z,19.48
2022-09-14T09:33:58.067Z,19.56
2022-09-14T09:36:28.850Z,19.69
2022-09-14T09:39:04.286Z,19.86
2022-09-14T09:45:50.466Z,19.27
2022-09-14T09:48:22.574Z,19.45
2022-09-14T09:51:06.166Z,19.85
2022-09-14T09:53:38.516Z,20.07
2022-09-14T09:56:08.969Z,20.11
2022-09-14T09:58:41.397Z,19.83
2022-09-14T10:01:24.574Z,19.96
2022-09-14T10:04:18.693Z,20.03
2022-09-14T10:06:53.264Z,20.17
2022-09-14T10:09:59.782Z,20.36
2022-09-14T10:13:04.007Z,20.48
2022-09-14T10:15:36.606Z,20.62
2022-09-14T10:18:17.414Z,20.83
2022-09-14T10:21:08.224Z,21.03
2022-09-14T10:23:42.029Z,20.91
2022-09-14T10:26:31.386Z,20.86
2022-09-14T10:29:30.467Z,20.50
2022-09-14T10:32:06.751Z,20.63
2022-09-14T10:34:36.824Z,20.63
2022-09-14T10:37:33.108Z,20.45
2022-09-14T10:40:17.008Z,20.48
2022-09-14T10:43:06.272Z,20.68
2022-09-14T10:45:42.679Z,20.98
2022-09-14T10:48:45.476Z,21.10
2022-09-14T10:51:37.381Z,21.21
2022-09-14T10:54:19.709Z,21.22
2022-09-14T10:57:05.656Z,21.42
2022-09-14T10:59:47.824Z,21.61
2022-09-14T11:02:45.486Z,21.43
2022-09-14T11:05:21.639Z,21.21
2022-09-14T11:08:07.629Z,20.92
2022-09-14T11:10:46.778Z,20.67
2022-09-14T11:13:34.755Z,20.79
2022-09-14T11:16:17.717Z,20.74
2022-09-14T11:18:57.987Z,21.10
2022-09-14T11:21:35.752Z,21.29
2022-09-14T11:24:14.360Z,21.17
2022-09-14T11:26:48.326Z,21.48
2022-09-14T11:29:27.437Z,21.80
2022-09-14T11:32:20.406Z,21.02
2022-09-14T11:34:58.170Z,20.99
2022-09-14T11:37:35.445Z,20.94
2022-09-14T11:40:16.735Z,20.78
2022-09-14T11:46:45.037Z,21.20
2022-09-14T12:10:03.237Z,22.18
2022-09-14T12:21:28.461Z,21.44
2022-09-14T12:24:00.203Z,21.32
2022-09-14T12:26:36.258Z,21.42
2022-09-14T12:29:29.198Z,21.15
2022-09-14T12:32:11.828Z,21.11
2022-09-14T12:35:32.407Z,21.48
2022-09-14T12:37:49.419Z,20.85
2022-09-14T12:42:28.161Z,20.58
2022-09-14T12:45:01.954Z,20.58
2022-09-14T12:48:00.867Z,20.79
2022-09-14T12:50:38.069Z,21.03
2022-09-14T12:53:28.739Z,21.00
2022-09-14T12:56:07.026Z,21.12
2022-09-14T12:58:52.753Z,21.06
2022-09-14T13:01:55.870Z,21.49
2022-09-14T13:05:01.469Z,21.41
2022-09-14T13:20:53.383Z,22.77
2022-09-14T13:23:24.808Z,23.05
2022-09-14T13:26:01.062Z,22.90
2022-09-14T13:28:34.691Z,22.80
2022-09-14T13:31:05.675Z,22.50
2022-09-14T13:33:36.711Z,22.36
2022-09-14T13:36:12.815Z,22.14
2022-09-14T13:38:45.645Z,22.11
2022-09-14T13:41:19.243Z,22.11
2022-09-14T13:43:58.066Z,21.69
2022-09-14T13:50:10.857Z,22.02
2022-09-14T13:53:03.069Z,22.06
2022-09-14T13:55:51.412Z,22.22
2022-09-14T13:58:35.717Z,22.23
2022-09-14T14:01:21.847Z,22.50
2022-09-14T14:04:07.833Z,22.47
2022-09-14T14:06:50.610Z,22.72
2022-09-14T14:09:48.892Z,22.19
2022-09-14T14:16:19.007Z,21.57
2022-09-14T14:27:03.713Z,21.98
2022-09-14T14:30:48.867Z,22.22
2022-09-14T14:33:20.307Z,22.37
2022-09-14T14:36:33.604Z,22.28
2022-09-14T14:39:54.669Z,22.13
2022-09-14T14:45:35.356Z,21.71
2022-09-14T14:48:13.035Z,21.30
2022-09-14T14:50:44.439Z,21.45
2022-09-14T14:53:16.613Z,21.22
2022-09-14T14:56:28.278Z,21.07
2022-09-14T15:00:22.821Z,21.56
2022-09-14T15:03:19.174Z,21.84
2022-09-14T15:09:18.469Z,21.27
2022-09-14T15:11:51.249Z,21.12
2022-09-14T15:14:26.194Z,21.12
2022-09-14T15:17:00.220Z,21.03
2022-09-14T15:19:32.964Z,21.27
2022-09-14T15:22:03.115Z,21.50
2022-09-14T15:24:33.167Z,21.70
2022-09-14T15:27:03.158Z,21.77
2022-09-14T15:29:33.328Z,21.85
2022-09-14T15:32:06.136Z,21.94
2022-09-14T15:34:41.118Z,21.90
2022-09-14T15:37:12.199Z,21.90
2022-09-14T15:39:46.108Z,21.99
2022-09-14T15:42:21.348Z,21.65
2022-09-14T15:56:27.562Z,21.89
2022-09-14T15:59:03.997Z,22.04
2022-09-14T16:01:40.850Z,22.08
2022-09-14T16:04:12.078Z,22.03
2022-09-14T16:06:47.531Z,22.01
2022-09-14T16:09:22.353Z,21.97
2022-09-14T16:11:58.416Z,21.94
2022-09-14T16:14:52.762Z,21.97
2022-09-14T16:17:28.432Z,21.98
2022-09-14T16:20:00.285Z,21.84
2022-09-14T16:37:02.525Z,21.22
2022-09-14T16:39:35.280Z,21.10
2022-09-14T16:42:05.982Z,20.92
2022-09-14T16:44:36.336Z,20.88
2022-09-14T16:47:10.244Z,20.86
2022-09-14T16:49:42.170Z,20.56
2022-09-14T16:52:12.085Z,20.60
2022-09-14T16:54:42.518Z,20.52
2022-09-14T16:57:12.393Z,20.55
2022-09-14T16:59:42.204Z,20.33
2022-09-14T17:02:17.502Z,19.96
2022-09-14T17:04:47.349Z,20.23
2022-09-14T17:07:17.491Z,20.32
2022-09-14T17:09:50.410Z,20.22
2022-09-14T17:18:00.148Z,20.05
2022-09-14T17:20:34.658Z,20.00
2022-09-14T17:27:26.981Z,20.48
2022-09-14T17:30:07.971Z,20.58
2022-09-14T17:32:47.883Z,20.65
2022-09-14T17:35:41.359Z,20.62
2022-09-14T17:38:11.965Z,20.30
2022-09-14T17:40:42.140Z,20.12
2022-09-14T17:43:12.524Z,20.13
2022-09-14T17:45:42.996Z,20.03
2022-09-14T17:48:13.366Z,20.10
2022-09-14T17:50:46.078Z,19.99
2022-09-14T17:53:23.111Z,19.80
2022-09-14T17:55:53.229Z,19.61
2022-09-14T17:58:23.476Z,19.82
2022-09-14T18:00:53.631Z,20.07
2022-09-14T18:03:25.097Z,20.00
2022-09-14T18:05:59.554Z,20.00
2022-09-14T18:08:29.824Z,20.08
2022-09-14T18:11:06.067Z,20.11
2022-09-14T18:13:36.343Z,20.27
2022-09-14T18:16:07.344Z,20.04
2022-09-14T18:18:38.653Z,19.97
2022-09-14T18:21:15.025Z,20.13
2022-09-14T18:23:45.352Z,20.07
2022-09-14T18:26:17.818Z,20.05
2022-09-14T18:28:48.427Z,20.08
2022-09-14T18:31:22.705Z,20.37
2022-09-14T18:34:05.191Z,20.33
2022-09-14T18:36:41.706Z,20.16
2022-09-14T18:39:27.756Z,20.28
2022-09-14T18:42:02.002Z,20.24
2022-09-14T18:44:44.582Z,20.32
2022-09-14T18:47:17.790Z,20.57
2022-09-14T18:49:54.577Z,20.57
2022-09-14T18:52:36.591Z,20.60
2022-09-14T18:55:26.888Z,20.56
2022-09-14T18:57:58.978Z,20.67
2022-09-14T19:00:29.778Z,20.64
2022-09-14T19:03:01.359Z,20.58
2022-09-14T19:05:32.091Z,20.51
2022-09-14T19:08:05.512Z,20.45
2022-09-14T19:15:07.905Z,20.71
2022-09-14T19:17:56.405Z,20.57
2022-09-14T19:21:05.838Z,20.33
2022-09-14T19:23:46.040Z,20.33
2022-09-14T19:26:40.026Z,20.24
2022-09-14T19:29:15.415Z,20.31
2022-09-14T19:31:48.848Z,20.28
2022-09-14T19:34:22.554Z,20.23
2022-09-14T19:37:03.429Z,20.22
2022-09-14T19:39:52.380Z,20.21
2022-09-14T19:43:20.514Z,20.20
2022-09-14T19:45:53.193Z,20.23
2022-09-14T19:48:28.767Z,20.06
2022-09-14T19:51:04.444Z,19.97
2022-09-14T19:53:49.317Z,19.95
2022-09-14T19:56:25.558Z,20.05
2022-09-14T19:59:04.070Z,20.08
2022-09-14T20:01:36.282Z,20.05
2022-09-14T20:04:07.745Z,20.12
2022-09-14T20:07:13.985Z,20.05
2022-09-14T20:09:46.737Z,20.20
2022-09-14T20:12:19.507Z,20.02
2022-09-14T20:14:49.492Z,20.03
2022-09-14T20:17:19.942Z,19.95
2022-09-14T20:19:50.448Z,19.92
2022-09-14T20:22:20.677Z,20.02
2022-09-14T20:24:50.676Z,20.06
2022-09-14T20:27:23.728Z,20.00
2022-09-14T20:29:54.148Z,20.08
2022-09-14T20:36:21.806Z,19.95
2022-09-14T20:38:54.488Z,19.89
2022-09-14T20:41:26.528Z,19.89
2022-09-14T20:44:00.078Z,19.83
2022-09-14T20:46:34.998Z,19.88
2022-09-14T20:49:08.548Z,19.91
2022-09-14T20:51:39.229Z,19.86
2022-09-14T20:54:11.621Z,19.82
2022-09-14T20:56:42.959Z,19.83
2022-09-14T20:59:25.297Z,19.80
2022-09-14T21:35:16.898Z,18.71
2022-09-14T21:37:50.474Z,18.60
2022-09-14T21:40:25.948Z,18.27
2022-09-14T21:42:58.456Z,18.20
2022-09-14T21:45:30.867Z,18.04
2022-09-14T21:48:01.088Z,17.72
2022-09-14T21:50:33.548Z,17.78
2022-09-14T21:53:05.525Z,17.63
2022-09-14T21:55:35.545Z,17.50
2022-09-14T21:58:05.853Z,17.45
2022-09-14T22:00:36.302Z,17.24
2022-09-14T22:03:06.618Z,17.22
2022-09-14T22:05:41.309Z,17.12
2022-09-14T22:08:11.547Z,17.21
2022-09-14T22:10:46.223Z,17.45
2022-09-14T22:13:17.526Z,17.42
2022-09-14T22:15:47.857Z,17.44
2022-09-14T22:18:18.229Z,17.40
2022-09-14T22:20:58.505Z,17.49
2022-09-14T22:23:29.188Z,17.26
2022-09-14T22:25:58.899Z,17.23
2022-09-14T22:28:29.300Z,17.02
2022-09-14T22:30:59.344Z,16.90
2022-09-14T22:33:29.199Z,16.83
2022-09-14T22:36:03.782Z,16.89
2022-09-14T22:38:35.091Z,16.88
2022-09-14T22:41:08.260Z,16.93
2022-09-14T22:43:38.294Z,16.88
2022-09-14T22:46:10.183Z,16.84
2022-09-14T22:48:40.759Z,16.76
2022-09-14T22:51:15.927Z,16.83
2022-09-14T22:53:46.608Z,16.66
2022-09-14T22:56:19.284Z,16.55
2022-09-14T22:58:50.308Z,16.77
2022-09-14T23:01:23.989Z,16.72
2022-09-14T23:04:03.045Z,16.61
2022-09-14T23:06:39.927Z,16.57
2022-09-14T23:09:16.817Z,16.67
2022-09-14T23:11:55.327Z,16.60
2022-09-14T23:14:36.111Z,16.47
2022-09-14T23:17:08.938Z,16.56
2022-09-14T23:19:41.030Z,16.61
2022-09-14T23:22:17.882Z,16.64
2022-09-14T23:24:51.711Z,16.86
2022-09-14T23:27:28.845Z,16.87
2022-09-14T23:30:01.758Z,16.76
2022-09-14T23:32:34.267Z,16.82
2022-09-14T23:35:06.272Z,16.72
2022-09-14T23:37:41.185Z,16.38
2022-09-14T23:40:13.668Z,16.48
2022-09-14T23:42:45.738Z,16.22
2022-09-14T23:45:18.429Z,16.27
2022-09-14T23:47:51.339Z,16.31
2022-09-14T23:50:23.827Z,16.37
2022-09-14T23:52:59.867Z,16.44
2022-09-14T23:55:31.816Z,16.71
2022-09-14T23:58:03.305Z,16.86
